sensor_id;sensor_type;location;lat;lon;timestamp;P1;durP1;ratioP1;P2;durP2;ratioP2
70142;SDS011;57509;43.054;-0.040;2022-08-03T00:02:17;2.75;;;2.55;;
70142;SDS011;57509;43.054;-0.040;2022-08-03T00:04:57;3.92;;;2.75;;
70142;SDS011;57509;43.054;-0.040;2022-08-03T00:07:33;3.28;;;2.63;;
70142;SDS011;57509;43.054;-0.040;2022-08-03T00:10:19;2.63;;;2.30;;
70142;SDS011;57509;43.054;-0.040;2022-08-03T00:12:52;4.65;;;3.03;;
70142;SDS011;57509;43.054;-0.040;2022-08-03T00:15:28;4.88;;;2.15;;
70142;SDS011;57509;43.054;-0.040;2022-08-03T00:18:04;9.40;;;2.00;;
70142;SDS011;57509;43.054;-0.040;2022-08-03T00:20:30;5.32;;;1.90;;
70142;SDS011;57509;43.054;-0.040;2022-08-03T00:22:56;7.28;;;3.13;;
70142;SDS011;57509;43.054;-0.040;2022-08-03T00:25:23;2.50;;;2.28;;
70142;SDS011;57509;43.054;-0.040;2022-08-03T00:28:00;2.42;;;2.22;;
70142;SDS011;57509;43.054;-0.040;2022-08-03T00:30:28;2.55;;;2.35;;
70142;SDS011;57509;43.054;-0.040;2022-08-03T00:33:02;3.33;;;2.38;;
70142;SDS011;57509;43.054;-0.040;2022-08-03T00:35:38;3.03;;;1.92;;
70142;SDS011;57509;43.054;-0.040;2022-08-03T00:38:07;6.55;;;2.85;;
70142;SDS011;57509;43.054;-0.040;2022-08-03T00:40:38;7.13;;;2.10;;
70142;SDS011;57509;43.054;-0.040;2022-08-03T00:43:06;2.75;;;2.25;;
70142;SDS011;57509;43.054;-0.040;2022-08-03T00:45:36;2.28;;;2.13;;
70142;SDS011;57509;43.054;-0.040;2022-08-03T00:48:08;3.90;;;2.50;;
70142;SDS011;57509;43.054;-0.040;2022-08-03T00:50:42;8.85;;;2.63;;
70142;SDS011;57509;43.054;-0.040;2022-08-03T00:53:17;3.72;;;2.97;;
70142;SDS011;57509;43.054;-0.040;2022-08-03T00:55:45;5.22;;;2.17;;
70142;SDS011;57509;43.054;-0.040;2022-08-03T00:58:17;3.83;;;2.42;;
70142;SDS011;57509;43.054;-0.040;2022-08-03T01:00:53;4.03;;;2.15;;
70142;SDS011;57509;43.054;-0.040;2022-08-03T01:03:38;3.20;;;2.90;;
70142;SDS011;57509;43.054;-0.040;2022-08-03T01:06:18;9.40;;;2.53;;
70142;SDS011;57509;43.054;-0.040;2022-08-03T01:09:02;3.05;;;2.70;;
70142;SDS011;57509;43.054;-0.040;2022-08-03T01:14:48;5.10;;;2.13;;
70142;SDS011;57509;43.054;-0.040;2022-08-03T01:19:49;5.18;;;2.22;;
70142;SDS011;57509;43.054;-0.040;2022-08-03T01:22:36;2.92;;;2.33;;
70142;SDS011;57509;43.054;-0.040;2022-08-03T01:25:27;6.07;;;2.30;;
70142;SDS011;57509;43.054;-0.040;2022-08-03T01:30:55;11.80;;;2.40;;
70142;SDS011;57509;43.054;-0.040;2022-08-03T01:33:38;2.95;;;2.65;;
70142;SDS011;57509;43.054;-0.040;2022-08-03T01:36:23;4.80;;;3.05;;
70142;SDS011;57509;43.054;-0.040;2022-08-03T01:39:00;4.10;;;2.97;;
70142;SDS011;57509;43.054;-0.040;2022-08-03T01:41:43;3.38;;;2.70;;
70142;SDS011;57509;43.054;-0.040;2022-08-03T01:44:23;8.60;;;2.78;;
70142;SDS011;57509;43.054;-0.040;2022-08-03T01:47:13;3.45;;;3.15;;
70142;SDS011;57509;43.054;-0.040;2022-08-03T01:49:46;3.00;;;2.80;;
70142;SDS011;57509;43.054;-0.040;2022-08-03T01:52:17;3.60;;;2.42;;
70142;SDS011;57509;43.054;-0.040;2022-08-03T01:54:55;11.38;;;2.60;;
70142;SDS011;57509;43.054;-0.040;2022-08-03T01:57:30;3.05;;;2.78;;
70142;SDS011;57509;43.054;-0.040;2022-08-03T02:00:06;5.75;;;3.08;;
70142;SDS011;57509;43.054;-0.040;2022-08-03T02:02:44;3.20;;;2.58;;
70142;SDS011;57509;43.054;-0.040;2022-08-03T02:05:13;7.28;;;2.78;;
70142;SDS011;57509;43.054;-0.040;2022-08-03T02:08:12;2.05;;;1.85;;
70142;SDS011;57509;43.054;-0.040;2022-08-03T02:10:41;2.50;;;2.30;;
70142;SDS011;57509;43.054;-0.040;2022-08-03T02:13:13;2.92;;;2.67;;
70142;SDS011;57509;43.054;-0.040;2022-08-03T02:15:43;3.08;;;2.70;;
70142;SDS011;57509;43.054;-0.040;2022-08-03T02:18:23;4.13;;;2.67;;
70142;SDS011;57509;43.054;-0.040;2022-08-03T02:21:01;2.90;;;2.70;;
70142;SDS011;57509;43.054;-0.040;2022-08-03T02:23:42;4.28;;;3.25;;
70142;SDS011;57509;43.054;-0.040;2022-08-03T02:26:20;4.43;;;2.58;;
70142;SDS011;57509;43.054;-0.040;2022-08-03T02:29:02;6.78;;;3.03;;
70142;SDS011;57509;43.054;-0.040;2022-08-03T02:31:44;3.33;;;2.83;;
70142;SDS011;57509;43.054;-0.040;2022-08-03T02:34:22;3.00;;;2.80;;
70142;SDS011;57509;43.054;-0.040;2022-08-03T02:37:04;6.35;;;3.17;;
70142;SDS011;57509;43.054;-0.040;2022-08-03T02:39:45;3.10;;;2.80;;
70142;SDS011;57509;43.054;-0.040;2022-08-03T02:42:22;4.38;;;2.90;;
70142;SDS011;57509;43.054;-0.040;2022-08-03T02:45:01;7.13;;;3.63;;
70142;SDS011;57509;43.054;-0.040;2022-08-03T02:47:40;7.00;;;2.10;;
70142;SDS011;57509;43.054;-0.040;2022-08-03T02:50:17;3.03;;;2.65;;
70142;SDS011;57509;43.054;-0.040;2022-08-03T02:52:55;6.30;;;2.53;;
70142;SDS011;57509;43.054;-0.040;2022-08-03T02:55:30;3.92;;;2.92;;
70142;SDS011;57509;43.054;-0.040;2022-08-03T02:58:02;5.13;;;3.13;;
70142;SDS011;57509;43.054;-0.040;2022-08-03T03:00:30;4.38;;;2.00;;
70142;SDS011;57509;43.054;-0.040;2022-08-03T03:02:58;3.42;;;2.47;;
70142;SDS011;57509;43.054;-0.040;2022-08-03T03:05:30;2.90;;;2.67;;
70142;SDS011;57509;43.054;-0.040;2022-08-03T03:07:58;3.92;;;2.42;;
70142;SDS011;57509;43.054;-0.040;2022-08-03T03:10:35;3.58;;;2.22;;
70142;SDS011;57509;43.054;-0.040;2022-08-03T03:13:07;10.02;;;2.47;;
70142;SDS011;57509;43.054;-0.040;2022-08-03T03:15:34;2.42;;;2.17;;
70142;SDS011;57509;43.054;-0.040;2022-08-03T03:18:03;4.50;;;2.40;;
70142;SDS011;57509;43.054;-0.040;2022-08-03T03:20:40;6.75;;;2.45;;
70142;SDS011;57509;43.054;-0.040;2022-08-03T03:23:16;2.75;;;2.55;;
70142;SDS011;57509;43.054;-0.040;2022-08-03T03:25:51;2.90;;;2.53;;
70142;SDS011;57509;43.054;-0.040;2022-08-03T03:28:24;5.85;;;2.42;;
70142;SDS011;57509;43.054;-0.040;2022-08-03T03:31:01;7.68;;;3.13;;
70142;SDS011;57509;43.054;-0.040;2022-08-03T03:33:32;2.55;;;2.35;;
70142;SDS011;57509;43.054;-0.040;2022-08-03T03:36:07;9.75;;;2.80;;
70142;SDS011;57509;43.054;-0.040;2022-08-03T03:38:38;2.95;;;2.40;;
70142;SDS011;57509;43.054;-0.040;2022-08-03T03:41:16;4.10;;;2.60;;
70142;SDS011;57509;43.054;-0.040;2022-08-03T03:43:41;3.13;;;2.78;;
70142;SDS011;57509;43.054;-0.040;2022-08-03T03:46:07;2.55;;;2.35;;
70142;SDS011;57509;43.054;-0.040;2022-08-03T03:48:40;2.90;;;2.63;;
70142;SDS011;57509;43.054;-0.040;2022-08-03T03:51:09;4.75;;;2.72;;
70142;SDS011;57509;43.054;-0.040;2022-08-03T03:53:37;5.93;;;2.78;;
70142;SDS011;57509;43.054;-0.040;2022-08-03T03:56:02;2.95;;;2.75;;
70142;SDS011;57509;43.054;-0.040;2022-08-03T03:58:33;2.08;;;1.90;;
70142;SDS011;57509;43.054;-0.040;2022-08-03T04:01:06;2.50;;;2.20;;
70142;SDS011;57509;43.054;-0.040;2022-08-03T04:03:49;6.22;;;2.50;;
70142;SDS011;57509;43.054;-0.040;2022-08-03T04:06:25;7.78;;;2.97;;
70142;SDS011;57509;43.054;-0.040;2022-08-03T04:09:11;3.08;;;2.83;;
70142;SDS011;57509;43.054;-0.040;2022-08-03T04:14:28;8.15;;;2.95;;
70142;SDS011;57509;43.054;-0.040;2022-08-03T04:17:01;8.07;;;3.88;;
70142;SDS011;57509;43.054;-0.040;2022-08-03T04:19:42;6.47;;;5.85;;
70142;SDS011;57509;43.054;-0.040;2022-08-03T04:22:17;5.63;;;4.35;;
70142;SDS011;57509;43.054;-0.040;2022-08-03T04:25:04;6.00;;;5.10;;
70142;SDS011;57509;43.054;-0.040;2022-08-03T04:27:43;5.88;;;4.15;;
70142;SDS011;57509;43.054;-0.040;2022-08-03T04:30:25;5.10;;;3.03;;
70142;SDS011;57509;43.054;-0.040;2022-08-03T04:33:14;6.25;;;3.50;;
70142;SDS011;57509;43.054;-0.040;2022-08-03T04:35:44;5.63;;;5.13;;
70142;SDS011;57509;43.054;-0.040;2022-08-03T04:38:15;3.60;;;3.30;;
70142;SDS011;57509;43.054;-0.040;2022-08-03T04:40:43;5.55;;;4.18;;
70142;SDS011;57509;43.054;-0.040;2022-08-03T04:43:12;4.60;;;3.63;;
70142;SDS011;57509;43.054;-0.040;2022-08-03T04:45:40;3.78;;;2.35;;
70142;SDS011;57509;43.054;-0.040;2022-08-03T04:48:12;5.00;;;3.40;;
70142;SDS011;57509;43.054;-0.040;2022-08-03T04:50:38;7.88;;;3.13;;
70142;SDS011;57509;43.054;-0.040;2022-08-03T04:53:05;7.18;;;3.53;;
70142;SDS011;57509;43.054;-0.040;2022-08-03T04:55:36;2.80;;;2.60;;
70142;SDS011;57509;43.054;-0.040;2022-08-03T04:58:02;4.53;;;2.50;;
70142;SDS011;57509;43.054;-0.040;2022-08-03T05:00:28;6.85;;;3.70;;
70142;SDS011;57509;43.054;-0.040;2022-08-03T05:02:54;4.32;;;2.65;;
70142;SDS011;57509;43.054;-0.040;2022-08-03T05:05:20;2.35;;;2.22;;
70142;SDS011;57509;43.054;-0.040;2022-08-03T05:07:47;3.25;;;2.75;;
70142;SDS011;57509;43.054;-0.040;2022-08-03T05:10:13;4.53;;;3.05;;
70142;SDS011;57509;43.054;-0.040;2022-08-03T05:12:44;2.80;;;2.53;;
70142;SDS011;57509;43.054;-0.040;2022-08-03T05:15:20;10.40;;;3.20;;
70142;SDS011;57509;43.054;-0.040;2022-08-03T05:17:55;5.68;;;3.28;;
70142;SDS011;57509;43.054;-0.040;2022-08-03T05:20:31;11.20;;;3.20;;
70142;SDS011;57509;43.054;-0.040;2022-08-03T05:23:11;4.40;;;3.35;;
70142;SDS011;57509;43.054;-0.040;2022-08-03T05:25:49;9.02;;;3.10;;
70142;SDS011;57509;43.054;-0.040;2022-08-03T05:28:18;4.10;;;3.00;;
70142;SDS011;57509;43.054;-0.040;2022-08-03T05:30:46;4.72;;;2.80;;
70142;SDS011;57509;43.054;-0.040;2022-08-03T05:33:20;2.90;;;2.58;;
70142;SDS011;57509;43.054;-0.040;2022-08-03T05:35:49;3.25;;;3.00;;
70142;SDS011;57509;43.054;-0.040;2022-08-03T05:38:15;3.72;;;2.95;;
70142;SDS011;57509;43.054;-0.040;2022-08-03T05:40:43;5.30;;;3.03;;
70142;SDS011;57509;43.054;-0.040;2022-08-03T05:43:11;3.00;;;2.70;;
70142;SDS011;57509;43.054;-0.040;2022-08-03T05:45:40;3.92;;;2.28;;
70142;SDS011;57509;43.054;-0.040;2022-08-03T05:48:05;5.97;;;3.28;;
70142;SDS011;57509;43.054;-0.040;2022-08-03T05:50:33;3.67;;;2.92;;
70142;SDS011;57509;43.054;-0.040;2022-08-03T05:53:01;5.38;;;3.10;;
70142;SDS011;57509;43.054;-0.040;2022-08-03T05:55:29;10.55;;;3.67;;
70142;SDS011;57509;43.054;-0.040;2022-08-03T05:57:58;4.55;;;3.67;;
70142;SDS011;57509;43.054;-0.040;2022-08-03T06:00:27;3.15;;;2.83;;
70142;SDS011;57509;43.054;-0.040;2022-08-03T06:02:52;15.23;;;3.33;;
70142;SDS011;57509;43.054;-0.040;2022-08-03T06:05:28;17.80;;;3.85;;
70142;SDS011;57509;43.054;-0.040;2022-08-03T06:08:04;8.65;;;3.13;;
70142;SDS011;57509;43.054;-0.040;2022-08-03T06:10:45;10.57;;;3.28;;
70142;SDS011;57509;43.054;-0.040;2022-08-03T06:13:11;4.43;;;3.58;;
70142;SDS011;57509;43.054;-0.040;2022-08-03T06:15:39;3.83;;;3.45;;
70142;SDS011;57509;43.054;-0.040;2022-08-03T06:18:15;7.40;;;3.50;;
70142;SDS011;57509;43.054;-0.040;2022-08-03T06:20:48;4.72;;;2.92;;
70142;SDS011;57509;43.054;-0.040;2022-08-03T06:23:37;3.58;;;3.28;;
70142;SDS011;57509;43.054;-0.040;2022-08-03T06:26:12;3.38;;;3.08;;
70142;SDS011;57509;43.054;-0.040;2022-08-03T06:28:47;13.00;;;3.47;;
70142;SDS011;57509;43.054;-0.040;2022-08-03T06:31:20;10.95;;;3.50;;
70142;SDS011;57509;43.054;-0.040;2022-08-03T06:33:49;10.63;;;2.65;;
70142;SDS011;57509;43.054;-0.040;2022-08-03T06:36:17;3.40;;;3.10;;
70142;SDS011;57509;43.054;-0.040;2022-08-03T06:38:59;7.30;;;2.65;;
70142;SDS011;57509;43.054;-0.040;2022-08-03T06:41:31;9.43;;;3.10;;
70142;SDS011;57509;43.054;-0.040;2022-08-03T06:44:04;10.20;;;4.18;;
70142;SDS011;57509;43.054;-0.040;2022-08-03T06:46:40;14.13;;;3.17;;
70142;SDS011;57509;43.054;-0.040;2022-08-03T06:49:16;21.25;;;4.93;;
70142;SDS011;57509;43.054;-0.040;2022-08-03T06:51:41;11.32;;;4.05;;
70142;SDS011;57509;43.054;-0.040;2022-08-03T06:54:17;8.27;;;3.45;;
70142;SDS011;57509;43.054;-0.040;2022-08-03T06:56:46;6.68;;;2.83;;
70142;SDS011;57509;43.054;-0.040;2022-08-03T06:59:15;5.28;;;3.38;;
70142;SDS011;57509;43.054;-0.040;2022-08-03T07:01:42;8.50;;;2.97;;
70142;SDS011;57509;43.054;-0.040;2022-08-03T07:04:15;4.50;;;2.55;;
70142;SDS011;57509;43.054;-0.040;2022-08-03T07:06:51;14.18;;;2.78;;
70142;SDS011;57509;43.054;-0.040;2022-08-03T07:09:20;3.00;;;2.65;;
70142;SDS011;57509;43.054;-0.040;2022-08-03T07:11:50;3.42;;;2.72;;
70142;SDS011;57509;43.054;-0.040;2022-08-03T07:14:19;2.90;;;2.63;;
70142;SDS011;57509;43.054;-0.040;2022-08-03T07:16:55;5.60;;;3.05;;
70142;SDS011;57509;43.054;-0.040;2022-08-03T07:19:24;2.63;;;2.42;;
70142;SDS011;57509;43.054;-0.040;2022-08-03T07:21:52;11.57;;;2.38;;
70142;SDS011;57509;43.054;-0.040;2022-08-03T07:24:20;3.03;;;2.60;;
70142;SDS011;57509;43.054;-0.040;2022-08-03T07:26:46;4.35;;;3.22;;
70142;SDS011;57509;43.054;-0.040;2022-08-03T07:29:11;2.90;;;2.70;;
70142;SDS011;57509;43.054;-0.040;2022-08-03T07:31:39;9.60;;;3.90;;
70142;SDS011;57509;43.054;-0.040;2022-08-03T07:34:09;10.23;;;3.20;;
70142;SDS011;57509;43.054;-0.040;2022-08-03T07:36:38;6.70;;;3.42;;
70142;SDS011;57509;43.054;-0.040;2022-08-03T07:39:06;9.23;;;3.67;;
70142;SDS011;57509;43.054;-0.040;2022-08-03T07:41:33;8.13;;;2.90;;
70142;SDS011;57509;43.054;-0.040;2022-08-03T07:43:59;7.47;;;3.13;;
70142;SDS011;57509;43.054;-0.040;2022-08-03T07:46:27;34.75;;;6.30;;
70142;SDS011;57509;43.054;-0.040;2022-08-03T07:48:58;22.23;;;4.82;;
70142;SDS011;57509;43.054;-0.040;2022-08-03T07:51:27;12.80;;;3.42;;
70142;SDS011;57509;43.054;-0.040;2022-08-03T07:53:52;6.93;;;3.72;;
70142;SDS011;57509;43.054;-0.040;2022-08-03T07:56:21;2.40;;;2.15;;
70142;SDS011;57509;43.054;-0.040;2022-08-03T07:58:54;3.83;;;2.60;;
70142;SDS011;57509;43.054;-0.040;2022-08-03T08:01:43;4.40;;;2.78;;
70142;SDS011;57509;43.054;-0.040;2022-08-03T08:04:18;3.03;;;2.55;;
70142;SDS011;57509;43.054;-0.040;2022-08-03T08:09:31;9.88;;;3.08;;
70142;SDS011;57509;43.054;-0.040;2022-08-03T08:12:06;3.97;;;2.88;;
70142;SDS011;57509;43.054;-0.040;2022-08-03T08:14:36;4.57;;;2.65;;
70142;SDS011;57509;43.054;-0.040;2022-08-03T08:17:13;10.48;;;3.05;;
70142;SDS011;57509;43.054;-0.040;2022-08-03T08:19:49;4.70;;;2.40;;
70142;SDS011;57509;43.054;-0.040;2022-08-03T08:22:17;6.60;;;3.10;;
70142;SDS011;57509;43.054;-0.040;2022-08-03T08:24:45;4.18;;;2.58;;
70142;SDS011;57509;43.054;-0.040;2022-08-03T08:27:14;2.92;;;2.13;;
70142;SDS011;57509;43.054;-0.040;2022-08-03T08:29:42;6.57;;;3.22;;
70142;SDS011;57509;43.054;-0.040;2022-08-03T08:32:17;6.80;;;2.50;;
70142;SDS011;57509;43.054;-0.040;2022-08-03T08:34:43;6.07;;;3.40;;
70142;SDS011;57509;43.054;-0.040;2022-08-03T08:37:08;7.55;;;2.30;;
70142;SDS011;57509;43.054;-0.040;2022-08-03T08:39:44;4.50;;;2.30;;
70142;SDS011;57509;43.054;-0.040;2022-08-03T08:42:20;5.32;;;2.05;;
70142;SDS011;57509;43.054;-0.040;2022-08-03T08:44:46;2.50;;;2.30;;
70142;SDS011;57509;43.054;-0.040;2022-08-03T08:47:11;3.13;;;2.70;;
70142;SDS011;57509;43.054;-0.040;2022-08-03T08:49:43;6.35;;;2.92;;
70142;SDS011;57509;43.054;-0.040;2022-08-03T08:52:22;7.65;;;2.05;;
70142;SDS011;57509;43.054;-0.040;2022-08-03T08:57:35;4.53;;;3.17;;
70142;SDS011;57509;43.054;-0.040;2022-08-03T09:00:19;3.10;;;2.20;;
70142;SDS011;57509;43.054;-0.040;2022-08-03T09:02:55;2.45;;;2.25;;
70142;SDS011;57509;43.054;-0.040;2022-08-03T09:05:23;8.07;;;2.65;;
70142;SDS011;57509;43.054;-0.040;2022-08-03T09:07:51;4.90;;;2.22;;
70142;SDS011;57509;43.054;-0.040;2022-08-03T09:10:27;3.30;;;2.58;;
70142;SDS011;57509;43.054;-0.040;2022-08-03T09:13:00;11.20;;;2.63;;
70142;SDS011;57509;43.054;-0.040;2022-08-03T09:15:26;6.15;;;2.33;;
70142;SDS011;57509;43.054;-0.040;2022-08-03T09:18:03;12.80;;;2.67;;
70142;SDS011;57509;43.054;-0.040;2022-08-03T09:20:41;3.63;;;2.00;;
70142;SDS011;57509;43.054;-0.040;2022-08-03T09:23:17;2.90;;;2.10;;
70142;SDS011;57509;43.054;-0.040;2022-08-03T09:25:56;4.35;;;2.13;;
70142;SDS011;57509;43.054;-0.040;2022-08-03T09:28:33;7.20;;;3.00;;
70142;SDS011;57509;43.054;-0.040;2022-08-03T09:31:00;12.05;;;3.22;;
70142;SDS011;57509;43.054;-0.040;2022-08-03T09:33:33;38.47;;;4.43;;
70142;SDS011;57509;43.054;-0.040;2022-08-03T09:39:15;3.08;;;2.58;;
70142;SDS011;57509;43.054;-0.040;2022-08-03T09:41:48;10.30;;;2.60;;
70142;SDS011;57509;43.054;-0.040;2022-08-03T09:44:58;3.40;;;1.92;;
70142;SDS011;57509;43.054;-0.040;2022-08-03T09:47:34;4.00;;;2.72;;
70142;SDS011;57509;43.054;-0.040;2022-08-03T09:50:10;5.88;;;2.78;;
70142;SDS011;57509;43.054;-0.040;2022-08-03T09:52:43;11.13;;;2.60;;
70142;SDS011;57509;43.054;-0.040;2022-08-03T09:55:19;6.93;;;2.15;;
70142;SDS011;57509;43.054;-0.040;2022-08-03T09:58:05;6.38;;;2.25;;
70142;SDS011;57509;43.054;-0.040;2022-08-03T10:00:33;4.28;;;2.78;;
70142;SDS011;57509;43.054;-0.040;2022-08-03T10:03:31;2.60;;;2.22;;
70142;SDS011;57509;43.054;-0.040;2022-08-03T10:06:15;2.38;;;1.92;;
70142;SDS011;57509;43.054;-0.040;2022-08-03T10:08:45;8.13;;;3.08;;
70142;SDS011;57509;43.054;-0.040;2022-08-03T10:11:11;2.47;;;2.13;;
70142;SDS011;57509;43.054;-0.040;2022-08-03T10:13:47;12.13;;;2.42;;
70142;SDS011;57509;43.054;-0.040;2022-08-03T10:16:23;7.45;;;2.78;;
70142;SDS011;57509;43.054;-0.040;2022-08-03T10:19:04;6.68;;;2.13;;
70142;SDS011;57509;43.054;-0.040;2022-08-03T10:21:48;8.57;;;2.72;;
70142;SDS011;57509;43.054;-0.040;2022-08-03T10:24:19;7.28;;;2.22;;
70142;SDS011;57509;43.054;-0.040;2022-08-03T10:26:49;7.28;;;2.50;;
70142;SDS011;57509;43.054;-0.040;2022-08-03T10:29:23;8.10;;;2.63;;
70142;SDS011;57509;43.054;-0.040;2022-08-03T10:32:03;8.07;;;2.20;;
70142;SDS011;57509;43.054;-0.040;2022-08-03T10:34:36;4.25;;;2.10;;
70142;SDS011;57509;43.054;-0.040;2022-08-03T10:37:08;3.78;;;2.45;;
70142;SDS011;57509;43.054;-0.040;2022-08-03T10:39:35;4.82;;;2.42;;
70142;SDS011;57509;43.054;-0.040;2022-08-03T10:42:20;7.95;;;1.95;;
70142;SDS011;57509;43.054;-0.040;2022-08-03T10:45:08;9.90;;;1.63;;
70142;SDS011;57509;43.054;-0.040;2022-08-03T10:47:52;3.70;;;2.08;;
70142;SDS011;57509;43.054;-0.040;2022-08-03T10:50:23;5.65;;;2.78;;
70142;SDS011;57509;43.054;-0.040;2022-08-03T10:52:56;8.32;;;2.17;;
70142;SDS011;57509;43.054;-0.040;2022-08-03T10:58:13;12.90;;;2.50;;
70142;SDS011;57509;43.054;-0.040;2022-08-03T11:00:48;5.57;;;2.22;;
70142;SDS011;57509;43.054;-0.040;2022-08-03T11:03:15;7.22;;;2.60;;
70142;SDS011;57509;43.054;-0.040;2022-08-03T11:05:51;6.25;;;2.28;;
70142;SDS011;57509;43.054;-0.040;2022-08-03T11:08:29;2.72;;;2.10;;
70142;SDS011;57509;43.054;-0.040;2022-08-03T11:16:41;2.42;;;2.20;;
70142;SDS011;57509;43.054;-0.040;2022-08-03T11:19:14;8.30;;;2.85;;
70142;SDS011;57509;43.054;-0.040;2022-08-03T11:21:52;3.22;;;2.08;;
70142;SDS011;57509;43.054;-0.040;2022-08-03T11:27:30;9.00;;;2.90;;
70142;SDS011;57509;43.054;-0.040;2022-08-03T11:30:09;4.53;;;1.67;;
70142;SDS011;57509;43.054;-0.040;2022-08-03T11:35:12;12.52;;;2.05;;
70142;SDS011;57509;43.054;-0.040;2022-08-03T11:38:09;2.13;;;1.92;;
70142;SDS011;57509;43.054;-0.040;2022-08-03T11:40:48;8.25;;;2.45;;
70142;SDS011;57509;43.054;-0.040;2022-08-03T11:48:34;7.95;;;1.50;;
70142;SDS011;57509;43.054;-0.040;2022-08-03T11:51:17;10.90;;;2.22;;
70142;SDS011;57509;43.054;-0.040;2022-08-03T11:54:06;15.02;;;1.95;;
70142;SDS011;57509;43.054;-0.040;2022-08-03T11:56:45;4.85;;;1.10;;
70142;SDS011;57509;43.054;-0.040;2022-08-03T11:59:12;6.00;;;1.65;;
70142;SDS011;57509;43.054;-0.040;2022-08-03T12:01:42;9.82;;;2.17;;
70142;SDS011;57509;43.054;-0.040;2022-08-03T12:04:08;2.53;;;1.88;;
70142;SDS011;57509;43.054;-0.040;2022-08-03T12:06:57;2.38;;;1.45;;
70142;SDS011;57509;43.054;-0.040;2022-08-03T12:10:13;4.10;;;1.25;;
70142;SDS011;57509;43.054;-0.040;2022-08-03T12:13:12;9.00;;;1.83;;
70142;SDS011;57509;43.054;-0.040;2022-08-03T12:15:53;4.40;;;1.85;;
70142;SDS011;57509;43.054;-0.040;2022-08-03T12:18:32;8.60;;;1.27;;
70142;SDS011;57509;43.054;-0.040;2022-08-03T12:21:19;3.75;;;1.60;;
70142;SDS011;57509;43.054;-0.040;2022-08-03T12:24:04;2.33;;;1.00;;
70142;SDS011;57509;43.054;-0.040;2022-08-03T12:26:46;2.10;;;1.15;;
70142;SDS011;57509;43.054;-0.040;2022-08-03T12:29:29;12.18;;;1.77;;
70142;SDS011;57509;43.054;-0.040;2022-08-03T12:32:19;7.45;;;1.88;;
70142;SDS011;57509;43.054;-0.040;2022-08-03T12:35:17;5.00;;;1.85;;
70142;SDS011;57509;43.054;-0.040;2022-08-03T12:38:04;9.15;;;1.88;;
70142;SDS011;57509;43.054;-0.040;2022-08-03T12:40:53;10.65;;;1.65;;
70142;SDS011;57509;43.054;-0.040;2022-08-03T12:43:52;2.17;;;1.52;;
70142;SDS011;57509;43.054;-0.040;2022-08-03T12:46:32;11.18;;;1.77;;
70142;SDS011;57509;43.054;-0.040;2022-08-03T12:52:41;9.57;;;1.70;;
70142;SDS011;57509;43.054;-0.040;2022-08-03T12:55:17;4.40;;;1.95;;
70142;SDS011;57509;43.054;-0.040;2022-08-03T12:58:00;2.83;;;1.38;;
70142;SDS011;57509;43.054;-0.040;2022-08-03T13:00:38;5.25;;;1.40;;
70142;SDS011;57509;43.054;-0.040;2022-08-03T13:03:43;6.00;;;1.85;;
70142;SDS011;57509;43.054;-0.040;2022-08-03T13:06:35;6.00;;;1.95;;
70142;SDS011;57509;43.054;-0.040;2022-08-03T13:09:11;5.38;;;1.40;;
70142;SDS011;57509;43.054;-0.040;2022-08-03T13:15:08;5.97;;;1.88;;
70142;SDS011;57509;43.054;-0.040;2022-08-03T13:18:24;2.67;;;1.25;;
70142;SDS011;57509;43.054;-0.040;2022-08-03T13:21:26;6.70;;;1.92;;
70142;SDS011;57509;43.054;-0.040;2022-08-03T13:24:40;12.15;;;1.80;;
70142;SDS011;57509;43.054;-0.040;2022-08-03T13:27:38;2.40;;;1.20;;
70142;SDS011;57509;43.054;-0.040;2022-08-03T13:30:50;1.88;;;1.17;;
70142;SDS011;57509;43.054;-0.040;2022-08-03T13:33:28;3.08;;;1.38;;
70142;SDS011;57509;43.054;-0.040;2022-08-03T13:36:09;11.02;;;1.85;;
70142;SDS011;57509;43.054;-0.040;2022-08-03T13:39:08;3.35;;;1.58;;
70142;SDS011;57509;43.054;-0.040;2022-08-03T13:41:51;12.20;;;1.35;;
70142;SDS011;57509;43.054;-0.040;2022-08-03T13:47:38;3.97;;;1.30;;
70142;SDS011;57509;43.054;-0.040;2022-08-03T13:50:16;11.77;;;1.75;;
70142;SDS011;57509;43.054;-0.040;2022-08-03T13:52:58;3.17;;;1.13;;
70142;SDS011;57509;43.054;-0.040;2022-08-03T13:56:00;2.13;;;0.90;;
70142;SDS011;57509;43.054;-0.040;2022-08-03T13:58:58;1.33;;;1.20;;
70142;SDS011;57509;43.054;-0.040;2022-08-03T14:01:36;4.03;;;1.23;;
70142;SDS011;57509;43.054;-0.040;2022-08-03T14:04:15;2.13;;;1.48;;
70142;SDS011;57509;43.054;-0.040;2022-08-03T14:06:55;4.00;;;1.73;;
70142;SDS011;57509;43.054;-0.040;2022-08-03T14:12:41;2.05;;;1.48;;
70142;SDS011;57509;43.054;-0.040;2022-08-03T14:15:19;7.65;;;1.63;;
70142;SDS011;57509;43.054;-0.040;2022-08-03T14:17:56;2.65;;;1.25;;
70142;SDS011;57509;43.054;-0.040;2022-08-03T14:20:32;3.38;;;1.70;;
70142;SDS011;57509;43.054;-0.040;2022-08-03T14:23:22;4.55;;;1.88;;
70142;SDS011;57509;43.054;-0.040;2022-08-03T14:25:58;1.70;;;1.40;;
70142;SDS011;57509;43.054;-0.040;2022-08-03T14:28:42;1.58;;;1.15;;
70142;SDS011;57509;43.054;-0.040;2022-08-03T14:31:26;1.77;;;1.30;;
70142;SDS011;57509;43.054;-0.040;2022-08-03T14:34:04;5.13;;;1.77;;
70142;SDS011;57509;43.054;-0.040;2022-08-03T14:36:42;2.40;;;1.40;;
70142;SDS011;57509;43.054;-0.040;2022-08-03T14:39:41;3.63;;;1.55;;
70142;SDS011;57509;43.054;-0.040;2022-08-03T14:42:13;12.32;;;2.00;;
70142;SDS011;57509;43.054;-0.040;2022-08-03T14:44:52;1.48;;;1.33;;
70142;SDS011;57509;43.054;-0.040;2022-08-03T14:47:22;6.97;;;2.03;;
70142;SDS011;57509;43.054;-0.040;2022-08-03T14:49:58;2.08;;;1.58;;
70142;SDS011;57509;43.054;-0.040;2022-08-03T14:52:56;8.32;;;2.00;;
70142;SDS011;57509;43.054;-0.040;2022-08-03T14:55:44;2.75;;;1.60;;
70142;SDS011;57509;43.054;-0.040;2022-08-03T14:58:21;6.55;;;1.92;;
70142;SDS011;57509;43.054;-0.040;2022-08-03T15:01:00;1.52;;;1.40;;
70142;SDS011;57509;43.054;-0.040;2022-08-03T15:03:36;1.27;;;1.17;;
70142;SDS011;57509;43.054;-0.040;2022-08-03T15:06:12;6.07;;;1.45;;
70142;SDS011;57509;43.054;-0.040;2022-08-03T15:08:50;2.65;;;1.48;;
70142;SDS011;57509;43.054;-0.040;2022-08-03T15:11:29;3.28;;;1.88;;
70142;SDS011;57509;43.054;-0.040;2022-08-03T15:14:05;3.38;;;1.15;;
70142;SDS011;57509;43.054;-0.040;2022-08-03T15:16:43;3.33;;;1.67;;
70142;SDS011;57509;43.054;-0.040;2022-08-03T15:19:19;5.43;;;1.95;;
70142;SDS011;57509;43.054;-0.040;2022-08-03T15:22:07;3.53;;;1.70;;
70142;SDS011;57509;43.054;-0.040;2022-08-03T15:24:46;3.20;;;1.65;;
70142;SDS011;57509;43.054;-0.040;2022-08-03T15:27:24;15.30;;;1.98;;
70142;SDS011;57509;43.054;-0.040;2022-08-03T15:30:00;8.20;;;2.53;;
70142;SDS011;57509;43.054;-0.040;2022-08-03T15:32:43;9.35;;;2.80;;
70142;SDS011;57509;43.054;-0.040;2022-08-03T15:35:24;4.05;;;1.98;;
70142;SDS011;57509;43.054;-0.040;2022-08-03T15:38:00;5.22;;;2.25;;
70142;SDS011;57509;43.054;-0.040;2022-08-03T15:40:36;6.50;;;2.28;;
70142;SDS011;57509;43.054;-0.040;2022-08-03T15:43:04;3.20;;;2.13;;
70142;SDS011;57509;43.054;-0.040;2022-08-03T15:45:40;3.42;;;1.48;;
70142;SDS011;57509;43.054;-0.040;2022-08-03T15:48:34;14.45;;;2.75;;
70142;SDS011;57509;43.054;-0.040;2022-08-03T15:51:14;8.77;;;2.42;;
70142;SDS011;57509;43.054;-0.040;2022-08-03T15:54:08;11.63;;;2.33;;
70142;SDS011;57509;43.054;-0.040;2022-08-03T15:56:36;9.43;;;2.97;;
70142;SDS011;57509;43.054;-0.040;2022-08-03T15:59:12;2.67;;;2.28;;
70142;SDS011;57509;43.054;-0.040;2022-08-03T16:01:51;4.50;;;2.45;;
70142;SDS011;57509;43.054;-0.040;2022-08-03T16:04:38;2.72;;;2.47;;
70142;SDS011;57509;43.054;-0.040;2022-08-03T16:07:33;3.17;;;2.22;;
70142;SDS011;57509;43.054;-0.040;2022-08-03T16:10:18;6.80;;;2.63;;
70142;SDS011;57509;43.054;-0.040;2022-08-03T16:12:55;13.77;;;2.47;;
70142;SDS011;57509;43.054;-0.040;2022-08-03T16:15:33;4.03;;;2.40;;
70142;SDS011;57509;43.054;-0.040;2022-08-03T16:18:09;6.57;;;2.28;;
70142;SDS011;57509;43.054;-0.040;2022-08-03T16:20:45;3.55;;;2.55;;